バンダラナイケ国際空港の過去48時間の天気

バンダラナイケ国際空港 (Katunayake)

現在時刻: 8/16 21:08 +0530 (8/16 15:38 UTC) 以下の時間は現地時間です。

過去48時間のMETAR気象情報
時間 風向 風速(m/s) 視程 気温(℃) 湿度(%) 気圧(hPa) 天気現象
16 20:40 西 2 9000m 25 89 1010
16 19:40 西南西 4 9000m 26 89 1009
16 18:40 西南西 5 9000m 26 89 1008
16 17:40 西南西 5 9000m 27 84 1008
16 16:40 西南西 6 10km以上 27 84 1008
16 15:40 西南西 6 10km以上 28 84 1008
16 14:40 西南西 6 10km以上 28 84 1008
16 13:40 西南西 4 10km以上 28 84 1009
16 12:40 西南西 6 10km以上 28 79 1010
16 11:40 西南西 5 10km以上 28 84 1010
16 10:40 西南西 4 10km以上 27 84 1010
16 09:40 4 10km以上 27 79 1011
16 08:40 西 2 10km以上 26 84 1010
16 07:40 3 10km以上 24 94 1009
16 07:10 西 3 10km以上 24 94 1009
16 05:40 2 10km以上 25 94 1008
16 04:40 南南東 2 10km以上 24 94 1008
16 03:40 南西 2 10km以上 25 94 1009
16 02:40 南西 3 10km以上 25 94 1008
16 01:40 西南西 3 10km以上 25 89 1009
16 00:40 西 2 10km以上 25 89 1010
15 23:40 西南西 3 10km以上 25 89 1011
15 22:40 西 4 10km以上 25 89 1011
15 21:40 西 3 10km以上 25 89 1010
15 20:40 西 4 9000m 25 89 1010
15 19:40 西 2 9000m 25 83 1009
15 18:40 不定 2 10km以上 24 94 1008
15 16:40 西南西 4 10km以上 27 84 1008
15 15:40 西南西 5 10km以上 27 84 1008
15 14:40 西南西 6 10km以上 27 84 1008
15 13:40 西南西 5 10km以上 28 79 1008
15 12:40 西南西 6 10km以上 27 89 1010
15 11:40 西 5 10km以上 27 84 1011
15 10:40 西 4 10km以上 25 94 1011
15 09:40 西南西 4 9000m 25 89 1011
15 08:40 西南西 7 8000m 24 94 1011
15 07:40 西南西 4 9000m 25 94 1010
15 06:40 西 4 10km以上 25 89 1009
15 05:40 西 3 9000m 24 94 1009 弱いしゅう雨
15 04:40 西 2 9000m 23 94 1009
15 02:40 西南西 4 10km以上 26 89 1009
15 01:40 西南西 5 9000m 26 89 1009
15 00:40 西南西 5 10km以上 26 89 1009
14 23:40 南西 4 10km以上 26 89 1010
14 22:40 西南西 4 10km以上 26 89 1011
14 21:40 西南西 3 10km以上 25 94 1011
VCBI 161510Z 26004KT 200V350 9000 SCT016 25/23 Q1010 NOSIG
VCBI 161410Z 25008KT 220V300 9000 BKN017 26/24 Q1009 NOSIG
VCBI 161310Z 25009KT 220V280 9000 FEW012 SCT016 26/24 Q1008 NOSIG
VCBI 161210Z 25009G23KT 220V300 9000 FEW014 SCT016 27/24 Q1008 NOSIG
VCBI 161110Z 25011KT 9999 SCT016 27/24 Q1008 NOSIG
VCBI 161010Z 24012KT 9999 SCT016 28/25 Q1008 NOSIG
VCBI 160910Z 24011KT 9999 SCT016 28/25 Q1008 NOSIG
VCBI 160810Z 25008KT 210V300 9999 SCT016 28/25 Q1009 NOSIG
VCBI 160710Z 25011KT 220V280 9999 FEW016 BKN030 28/24 Q1010 NOSIG
VCBI 160610Z 25010KT 220V300 9999 SCT016 28/25 Q1010 NOSIG
VCBI 160510Z 24008KT 9999 BKN016 27/24 Q1010 NOSIG
VCBI 160410Z VRB07KT 9999 BKN017 27/23 Q1011 NOSIG
VCBI 160310Z 26003KT 220V320 9999 SCT040 26/23 Q1010 NOSIG
VCBI 160210Z VRB05KT 9999 SCT017 24/23 Q1009 NOSIG
VCBI 160140Z 27006KT 210V330 9999 FEW012 BKN016 24/23 Q1009 NOSIG
VCBI 160010Z 17004KT 9999 BKN016 25/24 Q1008 RESHRA NOSIG
VCBI 152310Z 15003KT 120V180 9999 FEW017 24/23 Q1008 NOSIG
VCBI 152210Z 23004KT 9999 SCT018 25/24 Q1009 NOSIG
VCBI 152110Z 23006KT 9999 FEW017 25/24 Q1008 NOSIG
VCBI 152010Z 24006KT 9999 BKN030 25/23 Q1009 NOSIG
VCBI 151910Z 26003KT 210V320 9999 FEW016 25/23 Q1010 NOSIG
VCBI 151810Z 25005KT 210V300 9999 SCT016 25/23 Q1011 NOSIG
VCBI 151710Z 26007KT 220V330 9999 SCT016 25/23 Q1011 NOSIG
VCBI 151610Z 26006KT 220V310 9999 SCT016 25/23 Q1010 NOSIG
VCBI 151510Z 26008KT 230V310 9000 SCT016 25/23 Q1010 NOSIG
VCBI 151410Z 26004KT 200V330 9000 FEW016 SCT030 25/22 Q1009 NOSIG
VCBI 151310Z VRB03KT 9999 FEW016 BKN030 24/23 Q1008 NOSIG
VCBI 151110Z 25008KT 220V300 9999 SCT018 27/24 Q1008 NOSIG
VCBI 151010Z 25010KT 220V280 9999 BKN016 27/24 Q1008 NOSIG
VCBI 150910Z 24012KT 9999 FEW017 27/24 Q1008 NOSIG
VCBI 150810Z 25010KT 210V280 9999 FEW017 28/24 Q1008 NOSIG
VCBI 150710Z 24012KT 210V270 9999 SCT017 27/25 Q1010 NOSIG
VCBI 150610Z 26010KT 200V300 9999 SCT017 27/24 Q1011 NOSIG
VCBI 150510Z 27007KT 230V350 9999 BKN016 25/24 Q1011 NOSIG
VCBI 150410Z 25007KT 220V300 9000 FEW013 BKN016 25/23 Q1011 NOSIG
VCBI 150310Z 25014KT 8000 FEW012 SCT016 24/23 Q1011 RESHRA NOSIG
VCBI 150210Z 24008KT 9000 FEW012 SCT017 25/24 Q1010 NOSIG
VCBI 150110Z 27007KT 210V320 9999 FEW012 SCT016 25/23 Q1009 NOSIG
VCBI 150010Z 27005KT 190V010 9000 -SHRA BKN017 24/23 Q1009 NOSIG
VCBI 142310Z 27004KT 210V010 9000 SCT017 FEW020CB 23/22 Q1009 NOSIG RMK W/NW
VCBI 142110Z 24008KT 9999 SCT018 26/24 Q1009 NOSIG
VCBI 142010Z 24009KT 9000 FEW018 26/24 Q1009 NOSIG
VCBI 141910Z 24010KT 9999 FEW017 26/24 Q1009 NOSIG
VCBI 141810Z 23008KT 9999 SCT018 26/24 Q1010 NOSIG
VCBI 141710Z 25007KT 9999 SCT018 26/24 Q1011 NOSIG
VCBI 141610Z 25006KT 9999 SCT018 25/24 Q1011 NOSIG